sensor_id;sensor_type;location;lat;lon;timestamp;P1;durP1;ratioP1;P2;durP2;ratioP2
2576;SDS011;1298;51.252;6.802;2022-07-23T00:02:14;0.40;;;0.30;;
2576;SDS011;1298;51.252;6.802;2022-07-23T00:05:00;0.47;;;0.47;;
2576;SDS011;1298;51.252;6.802;2022-07-23T00:07:48;0.40;;;0.30;;
2576;SDS011;1298;51.252;6.802;2022-07-23T00:10:34;0.50;;;0.50;;
2576;SDS011;1298;51.252;6.802;2022-07-23T00:13:19;0.30;;;0.30;;
2576;SDS011;1298;51.252;6.802;2022-07-23T00:16:05;0.60;;;0.60;;
2576;SDS011;1298;51.252;6.802;2022-07-23T00:18:51;0.40;;;0.40;;
2576;SDS011;1298;51.252;6.802;2022-07-23T00:21:36;0.50;;;0.50;;
2576;SDS011;1298;51.252;6.802;2022-07-23T00:24:23;0.40;;;0.40;;
2576;SDS011;1298;51.252;6.802;2022-07-23T00:27:09;0.40;;;0.30;;
2576;SDS011;1298;51.252;6.802;2022-07-23T00:29:54;0.40;;;0.40;;
2576;SDS011;1298;51.252;6.802;2022-07-23T00:32:46;0.35;;;0.30;;
2576;SDS011;1298;51.252;6.802;2022-07-23T00:35:34;0.30;;;0.20;;
2576;SDS011;1298;51.252;6.802;2022-07-23T00:38:20;0.30;;;0.20;;
2576;SDS011;1298;51.252;6.802;2022-07-23T00:41:07;0.38;;;0.30;;
2576;SDS011;1298;51.252;6.802;2022-07-23T00:43:52;0.40;;;0.30;;
2576;SDS011;1298;51.252;6.802;2022-07-23T00:46:38;0.45;;;0.45;;
2576;SDS011;1298;51.252;6.802;2022-07-23T00:49:29;0.40;;;0.40;;
2576;SDS011;1298;51.252;6.802;2022-07-23T00:52:15;0.55;;;0.55;;
2576;SDS011;1298;51.252;6.802;2022-07-23T00:55:00;0.30;;;0.20;;
2576;SDS011;1298;51.252;6.802;2022-07-23T00:57:49;0.40;;;0.30;;
2576;SDS011;1298;51.252;6.802;2022-07-23T01:00:35;0.40;;;0.30;;
2576;SDS011;1298;51.252;6.802;2022-07-23T01:03:20;0.40;;;0.20;;
2576;SDS011;1298;51.252;6.802;2022-07-23T01:06:07;0.45;;;0.45;;
2576;SDS011;1298;51.252;6.802;2022-07-23T01:08:52;0.40;;;0.30;;
2576;SDS011;1298;51.252;6.802;2022-07-23T01:11:38;0.40;;;0.40;;
2576;SDS011;1298;51.252;6.802;2022-07-23T01:14:26;0.40;;;0.22;;
2576;SDS011;1298;51.252;6.802;2022-07-23T01:17:12;0.40;;;0.40;;
2576;SDS011;1298;51.252;6.802;2022-07-23T01:19:57;0.50;;;0.50;;
2576;SDS011;1298;51.252;6.802;2022-07-23T01:22:44;0.30;;;0.30;;
2576;SDS011;1298;51.252;6.802;2022-07-23T01:25:30;0.40;;;0.30;;
2576;SDS011;1298;51.252;6.802;2022-07-23T01:28:16;0.30;;;0.20;;
2576;SDS011;1298;51.252;6.802;2022-07-23T01:31:02;0.35;;;0.25;;
2576;SDS011;1298;51.252;6.802;2022-07-23T01:33:47;0.40;;;0.35;;
2576;SDS011;1298;51.252;6.802;2022-07-23T01:36:33;0.40;;;0.30;;
2576;SDS011;1298;51.252;6.802;2022-07-23T01:39:20;0.30;;;0.20;;
2576;SDS011;1298;51.252;6.802;2022-07-23T01:42:05;0.30;;;0.30;;
2576;SDS011;1298;51.252;6.802;2022-07-23T01:44:51;0.40;;;0.40;;
2576;SDS011;1298;51.252;6.802;2022-07-23T01:47:36;0.40;;;0.40;;
2576;SDS011;1298;51.252;6.802;2022-07-23T01:50:22;0.47;;;0.47;;
2576;SDS011;1298;51.252;6.802;2022-07-23T01:53:07;0.40;;;0.40;;
2576;SDS011;1298;51.252;6.802;2022-07-23T01:55:54;0.40;;;0.30;;
2576;SDS011;1298;51.252;6.802;2022-07-23T01:58:39;0.40;;;0.30;;
2576;SDS011;1298;51.252;6.802;2022-07-23T02:01:25;0.38;;;0.30;;
2576;SDS011;1298;51.252;6.802;2022-07-23T02:04:10;0.30;;;0.28;;
2576;SDS011;1298;51.252;6.802;2022-07-23T02:06:56;0.38;;;0.32;;
2576;SDS011;1298;51.252;6.802;2022-07-23T02:09:41;0.30;;;0.30;;
2576;SDS011;1298;51.252;6.802;2022-07-23T02:12:28;0.30;;;0.30;;
2576;SDS011;1298;51.252;6.802;2022-07-23T02:15:14;0.47;;;0.25;;
2576;SDS011;1298;51.252;6.802;2022-07-23T02:17:59;0.38;;;0.30;;
2576;SDS011;1298;51.252;6.802;2022-07-23T02:20:45;0.43;;;0.43;;
2576;SDS011;1298;51.252;6.802;2022-07-23T02:23:31;0.70;;;0.30;;
2576;SDS011;1298;51.252;6.802;2022-07-23T02:26:17;0.40;;;0.32;;
2576;SDS011;1298;51.252;6.802;2022-07-23T02:29:04;0.30;;;0.30;;
2576;SDS011;1298;51.252;6.802;2022-07-23T02:31:49;0.40;;;0.40;;
2576;SDS011;1298;51.252;6.802;2022-07-23T02:34:35;0.30;;;0.25;;
2576;SDS011;1298;51.252;6.802;2022-07-23T02:37:20;0.30;;;0.30;;
2576;SDS011;1298;51.252;6.802;2022-07-23T02:40:06;0.35;;;0.32;;
2576;SDS011;1298;51.252;6.802;2022-07-23T02:42:52;0.30;;;0.20;;
2576;SDS011;1298;51.252;6.802;2022-07-23T02:45:39;0.35;;;0.30;;
2576;SDS011;1298;51.252;6.802;2022-07-23T02:48:25;0.40;;;0.35;;
2576;SDS011;1298;51.252;6.802;2022-07-23T02:51:10;0.43;;;0.43;;
2576;SDS011;1298;51.252;6.802;2022-07-23T02:53:56;0.35;;;0.35;;
2576;SDS011;1298;51.252;6.802;2022-07-23T02:56:41;0.30;;;0.30;;
2576;SDS011;1298;51.252;6.802;2022-07-23T02:59:26;0.40;;;0.40;;
2576;SDS011;1298;51.252;6.802;2022-07-23T03:02:13;0.45;;;0.45;;
2576;SDS011;1298;51.252;6.802;2022-07-23T03:04:59;0.45;;;0.45;;
2576;SDS011;1298;51.252;6.802;2022-07-23T03:07:44;0.60;;;0.60;;
2576;SDS011;1298;51.252;6.802;2022-07-23T03:10:30;0.40;;;0.40;;
2576;SDS011;1298;51.252;6.802;2022-07-23T03:13:15;0.38;;;0.38;;
2576;SDS011;1298;51.252;6.802;2022-07-23T03:16:01;0.47;;;0.47;;
2576;SDS011;1298;51.252;6.802;2022-07-23T03:18:48;0.30;;;0.30;;
2576;SDS011;1298;51.252;6.802;2022-07-23T03:21:34;0.40;;;0.40;;
2576;SDS011;1298;51.252;6.802;2022-07-23T03:24:23;0.30;;;0.20;;
2576;SDS011;1298;51.252;6.802;2022-07-23T03:27:29;0.47;;;0.47;;
2576;SDS011;1298;51.252;6.802;2022-07-23T03:30:15;0.40;;;0.40;;
2576;SDS011;1298;51.252;6.802;2022-07-23T03:33:00;0.30;;;0.22;;
2576;SDS011;1298;51.252;6.802;2022-07-23T03:35:47;0.30;;;0.25;;
2576;SDS011;1298;51.252;6.802;2022-07-23T03:38:33;0.30;;;0.30;;
2576;SDS011;1298;51.252;6.802;2022-07-23T03:41:19;0.30;;;0.30;;
2576;SDS011;1298;51.252;6.802;2022-07-23T03:44:05;0.50;;;0.50;;
2576;SDS011;1298;51.252;6.802;2022-07-23T03:46:50;0.60;;;0.60;;
2576;SDS011;1298;51.252;6.802;2022-07-23T03:49:36;0.50;;;0.50;;
2576;SDS011;1298;51.252;6.802;2022-07-23T03:52:23;0.47;;;0.47;;
2576;SDS011;1298;51.252;6.802;2022-07-23T03:55:08;0.43;;;0.25;;
2576;SDS011;1298;51.252;6.802;2022-07-23T03:57:54;0.40;;;0.40;;
2576;SDS011;1298;51.252;6.802;2022-07-23T04:00:39;0.30;;;0.20;;
2576;SDS011;1298;51.252;6.802;2022-07-23T04:03:25;0.45;;;0.45;;
2576;SDS011;1298;51.252;6.802;2022-07-23T04:06:10;0.30;;;0.30;;
2576;SDS011;1298;51.252;6.802;2022-07-23T04:08:57;0.30;;;0.20;;
2576;SDS011;1298;51.252;6.802;2022-07-23T04:11:42;0.30;;;0.10;;
2576;SDS011;1298;51.252;6.802;2022-07-23T04:14:28;0.30;;;0.30;;
2576;SDS011;1298;51.252;6.802;2022-07-23T04:17:13;0.30;;;0.20;;
2576;SDS011;1298;51.252;6.802;2022-07-23T04:19:59;0.30;;;0.10;;
2576;SDS011;1298;51.252;6.802;2022-07-23T04:22:44;0.30;;;0.20;;
2576;SDS011;1298;51.252;6.802;2022-07-23T04:25:31;0.30;;;0.13;;
2576;SDS011;1298;51.252;6.802;2022-07-23T04:28:17;0.30;;;0.20;;
2576;SDS011;1298;51.252;6.802;2022-07-23T04:31:02;0.30;;;0.17;;
2576;SDS011;1298;51.252;6.802;2022-07-23T04:33:48;0.40;;;0.10;;
2576;SDS011;1298;51.252;6.802;2022-07-23T04:36:33;0.40;;;0.40;;
2576;SDS011;1298;51.252;6.802;2022-07-23T04:39:19;0.30;;;0.20;;
2576;SDS011;1298;51.252;6.802;2022-07-23T04:42:06;0.30;;;0.13;;
2576;SDS011;1298;51.252;6.802;2022-07-23T04:44:51;0.30;;;0.10;;
2576;SDS011;1298;51.252;6.802;2022-07-23T04:47:37;0.30;;;0.20;;
2576;SDS011;1298;51.252;6.802;2022-07-23T04:50:22;0.40;;;0.38;;
2576;SDS011;1298;51.252;6.802;2022-07-23T04:53:08;0.30;;;0.20;;
2576;SDS011;1298;51.252;6.802;2022-07-23T04:55:53;0.30;;;0.10;;
2576;SDS011;1298;51.252;6.802;2022-07-23T04:58:40;0.30;;;0.20;;
2576;SDS011;1298;51.252;6.802;2022-07-23T05:01:26;0.30;;;0.13;;
2576;SDS011;1298;51.252;6.802;2022-07-23T05:04:11;0.30;;;0.20;;
2576;SDS011;1298;51.252;6.802;2022-07-23T05:06:57;0.30;;;0.20;;
2576;SDS011;1298;51.252;6.802;2022-07-23T05:09:42;0.30;;;0.20;;
2576;SDS011;1298;51.252;6.802;2022-07-23T05:12:28;0.30;;;0.22;;
2576;SDS011;1298;51.252;6.802;2022-07-23T05:15:15;0.30;;;0.20;;
2576;SDS011;1298;51.252;6.802;2022-07-23T05:18:00;0.30;;;0.10;;
2576;SDS011;1298;51.252;6.802;2022-07-23T05:20:46;0.30;;;0.20;;
2576;SDS011;1298;51.252;6.802;2022-07-23T05:23:31;0.30;;;0.20;;
2576;SDS011;1298;51.252;6.802;2022-07-23T05:26:17;0.30;;;0.30;;
2576;SDS011;1298;51.252;6.802;2022-07-23T05:29:03;0.30;;;0.10;;
2576;SDS011;1298;51.252;6.802;2022-07-23T05:31:50;0.30;;;0.20;;
2576;SDS011;1298;51.252;6.802;2022-07-23T05:34:35;0.30;;;0.10;;
2576;SDS011;1298;51.252;6.802;2022-07-23T05:37:20;0.30;;;0.20;;
2576;SDS011;1298;51.252;6.802;2022-07-23T05:40:07;0.30;;;0.13;;
2576;SDS011;1298;51.252;6.802;2022-07-23T05:42:53;0.30;;;0.20;;
2576;SDS011;1298;51.252;6.802;2022-07-23T05:45:39;0.30;;;0.20;;
2576;SDS011;1298;51.252;6.802;2022-07-23T05:48:26;0.30;;;0.20;;
2576;SDS011;1298;51.252;6.802;2022-07-23T05:51:11;0.50;;;0.50;;
2576;SDS011;1298;51.252;6.802;2022-07-23T05:53:57;0.30;;;0.20;;
2576;SDS011;1298;51.252;6.802;2022-07-23T05:56:42;0.40;;;0.10;;
2576;SDS011;1298;51.252;6.802;2022-07-23T05:59:28;0.35;;;0.20;;
2576;SDS011;1298;51.252;6.802;2022-07-23T06:02:13;0.40;;;0.30;;
2576;SDS011;1298;51.252;6.802;2022-07-23T06:05:00;0.40;;;0.40;;
2576;SDS011;1298;51.252;6.802;2022-07-23T06:07:46;0.40;;;0.20;;
2576;SDS011;1298;51.252;6.802;2022-07-23T06:10:31;0.40;;;0.20;;
2576;SDS011;1298;51.252;6.802;2022-07-23T06:13:17;0.40;;;0.20;;
2576;SDS011;1298;51.252;6.802;2022-07-23T06:16:03;0.40;;;0.20;;
2576;SDS011;1298;51.252;6.802;2022-07-23T06:18:49;0.40;;;0.20;;
2576;SDS011;1298;51.252;6.802;2022-07-23T06:21:35;0.40;;;0.28;;
2576;SDS011;1298;51.252;6.802;2022-07-23T06:24:21;0.40;;;0.20;;
2576;SDS011;1298;51.252;6.802;2022-07-23T06:27:07;0.30;;;0.10;;
2576;SDS011;1298;51.252;6.802;2022-07-23T06:29:52;0.40;;;0.20;;
2576;SDS011;1298;51.252;6.802;2022-07-23T06:32:38;0.60;;;0.60;;
2576;SDS011;1298;51.252;6.802;2022-07-23T06:35:23;0.40;;;0.40;;
2576;SDS011;1298;51.252;6.802;2022-07-23T06:38:10;0.30;;;0.20;;
2576;SDS011;1298;51.252;6.802;2022-07-23T06:40:56;0.85;;;0.85;;
2576;SDS011;1298;51.252;6.802;2022-07-23T06:43:42;0.40;;;0.30;;
2576;SDS011;1298;51.252;6.802;2022-07-23T06:46:27;0.47;;;0.47;;
2576;SDS011;1298;51.252;6.802;2022-07-23T06:49:13;0.30;;;0.20;;
2576;SDS011;1298;51.252;6.802;2022-07-23T06:51:58;0.40;;;0.40;;
2576;SDS011;1298;51.252;6.802;2022-07-23T06:54:45;0.38;;;0.20;;
2576;SDS011;1298;51.252;6.802;2022-07-23T06:57:31;0.32;;;0.30;;
2576;SDS011;1298;51.252;6.802;2022-07-23T07:00:16;0.50;;;0.50;;
2576;SDS011;1298;51.252;6.802;2022-07-23T07:03:02;0.40;;;0.30;;
2576;SDS011;1298;51.252;6.802;2022-07-23T07:05:48;0.40;;;0.30;;
2576;SDS011;1298;51.252;6.802;2022-07-23T07:08:34;0.40;;;0.30;;
2576;SDS011;1298;51.252;6.802;2022-07-23T07:11:21;0.30;;;0.20;;
2576;SDS011;1298;51.252;6.802;2022-07-23T07:14:07;0.40;;;0.25;;
2576;SDS011;1298;51.252;6.802;2022-07-23T07:16:52;0.38;;;0.20;;
2576;SDS011;1298;51.252;6.802;2022-07-23T07:19:38;0.38;;;0.32;;
2576;SDS011;1298;51.252;6.802;2022-07-23T07:22:24;0.40;;;0.30;;
2576;SDS011;1298;51.252;6.802;2022-07-23T07:25:09;0.40;;;0.25;;
2576;SDS011;1298;51.252;6.802;2022-07-23T07:27:56;0.40;;;0.20;;
2576;SDS011;1298;51.252;6.802;2022-07-23T07:30:42;0.40;;;0.20;;
2576;SDS011;1298;51.252;6.802;2022-07-23T07:33:27;0.40;;;0.30;;
2576;SDS011;1298;51.252;6.802;2022-07-23T07:36:13;0.40;;;0.28;;
2576;SDS011;1298;51.252;6.802;2022-07-23T07:38:58;0.40;;;0.30;;
2576;SDS011;1298;51.252;6.802;2022-07-23T07:41:44;0.45;;;0.45;;
2576;SDS011;1298;51.252;6.802;2022-07-23T07:44:31;0.40;;;0.20;;
2576;SDS011;1298;51.252;6.802;2022-07-23T07:47:16;0.40;;;0.30;;
2576;SDS011;1298;51.252;6.802;2022-07-23T07:50:01;0.40;;;0.20;;
2576;SDS011;1298;51.252;6.802;2022-07-23T07:52:47;0.52;;;0.52;;
2576;SDS011;1298;51.252;6.802;2022-07-23T07:55:32;0.40;;;0.30;;
2576;SDS011;1298;51.252;6.802;2022-07-23T07:58:18;0.40;;;0.28;;
2576;SDS011;1298;51.252;6.802;2022-07-23T08:01:05;0.30;;;0.20;;
2576;SDS011;1298;51.252;6.802;2022-07-23T08:03:50;0.50;;;0.50;;
2576;SDS011;1298;51.252;6.802;2022-07-23T08:06:36;0.30;;;0.10;;
2576;SDS011;1298;51.252;6.802;2022-07-23T08:09:21;0.30;;;0.10;;
2576;SDS011;1298;51.252;6.802;2022-07-23T08:12:07;0.40;;;0.13;;
2576;SDS011;1298;51.252;6.802;2022-07-23T08:14:53;0.40;;;0.30;;
2576;SDS011;1298;51.252;6.802;2022-07-23T08:17:40;0.40;;;0.30;;
2576;SDS011;1298;51.252;6.802;2022-07-23T08:20:26;0.40;;;0.20;;
2576;SDS011;1298;51.252;6.802;2022-07-23T08:23:12;0.38;;;0.17;;
2576;SDS011;1298;51.252;6.802;2022-07-23T08:25:57;0.40;;;0.20;;
2576;SDS011;1298;51.252;6.802;2022-07-23T08:28:44;0.40;;;0.30;;
2576;SDS011;1298;51.252;6.802;2022-07-23T08:31:30;0.40;;;0.30;;
2576;SDS011;1298;51.252;6.802;2022-07-23T08:34:18;0.45;;;0.38;;
2576;SDS011;1298;51.252;6.802;2022-07-23T08:37:03;0.40;;;0.30;;
2576;SDS011;1298;51.252;6.802;2022-07-23T08:39:49;0.40;;;0.20;;
2576;SDS011;1298;51.252;6.802;2022-07-23T08:42:34;0.40;;;0.20;;
2576;SDS011;1298;51.252;6.802;2022-07-23T08:45:20;0.40;;;0.10;;
2576;SDS011;1298;51.252;6.802;2022-07-23T08:48:08;0.50;;;0.38;;
2576;SDS011;1298;51.252;6.802;2022-07-23T08:50:58;0.50;;;0.40;;
2576;SDS011;1298;51.252;6.802;2022-07-23T08:53:44;1.38;;;1.38;;
2576;SDS011;1298;51.252;6.802;2022-07-23T08:56:31;0.40;;;0.30;;
2576;SDS011;1298;51.252;6.802;2022-07-23T08:59:16;0.40;;;0.20;;
2576;SDS011;1298;51.252;6.802;2022-07-23T09:02:02;0.40;;;0.25;;
2576;SDS011;1298;51.252;6.802;2022-07-23T09:04:48;0.40;;;0.30;;
2576;SDS011;1298;51.252;6.802;2022-07-23T09:07:35;0.50;;;0.50;;
2576;SDS011;1298;51.252;6.802;2022-07-23T09:10:20;0.40;;;0.40;;
2576;SDS011;1298;51.252;6.802;2022-07-23T09:13:06;0.90;;;0.90;;
2576;SDS011;1298;51.252;6.802;2022-07-23T09:15:56;0.40;;;0.40;;
2576;SDS011;1298;51.252;6.802;2022-07-23T09:18:44;0.63;;;0.63;;
2576;SDS011;1298;51.252;6.802;2022-07-23T09:21:31;0.40;;;0.30;;
2576;SDS011;1298;51.252;6.802;2022-07-23T09:24:20;0.90;;;0.90;;
2576;SDS011;1298;51.252;6.802;2022-07-23T09:27:05;0.55;;;0.55;;
2576;SDS011;1298;51.252;6.802;2022-07-23T09:29:55;0.35;;;0.20;;
2576;SDS011;1298;51.252;6.802;2022-07-23T09:32:41;0.90;;;0.90;;
2576;SDS011;1298;51.252;6.802;2022-07-23T09:35:32;0.50;;;0.50;;
2576;SDS011;1298;51.252;6.802;2022-07-23T09:38:32;0.50;;;0.50;;
2576;SDS011;1298;51.252;6.802;2022-07-23T09:41:18;0.50;;;0.50;;
2576;SDS011;1298;51.252;6.802;2022-07-23T09:44:11;1.23;;;1.23;;
2576;SDS011;1298;51.252;6.802;2022-07-23T09:46:59;0.40;;;0.40;;
2576;SDS011;1298;51.252;6.802;2022-07-23T09:49:57;0.50;;;0.50;;
2576;SDS011;1298;51.252;6.802;2022-07-23T09:52:45;0.40;;;0.40;;
2576;SDS011;1298;51.252;6.802;2022-07-23T09:55:33;0.70;;;0.70;;
2576;SDS011;1298;51.252;6.802;2022-07-23T09:58:22;0.68;;;0.68;;
2576;SDS011;1298;51.252;6.802;2022-07-23T10:01:10;0.50;;;0.50;;
2576;SDS011;1298;51.252;6.802;2022-07-23T10:03:56;0.40;;;0.30;;
2576;SDS011;1298;51.252;6.802;2022-07-23T10:06:42;0.40;;;0.30;;
2576;SDS011;1298;51.252;6.802;2022-07-23T10:09:30;0.40;;;0.30;;
2576;SDS011;1298;51.252;6.802;2022-07-23T10:12:17;0.50;;;0.50;;
2576;SDS011;1298;51.252;6.802;2022-07-23T10:15:08;0.65;;;0.65;;
2576;SDS011;1298;51.252;6.802;2022-07-23T10:17:54;0.68;;;0.68;;
2576;SDS011;1298;51.252;6.802;2022-07-23T10:20:39;0.50;;;0.43;;
2576;SDS011;1298;51.252;6.802;2022-07-23T10:23:27;0.50;;;0.30;;
2576;SDS011;1298;51.252;6.802;2022-07-23T10:26:22;0.43;;;0.30;;
2576;SDS011;1298;51.252;6.802;2022-07-23T10:29:15;0.47;;;0.30;;
2576;SDS011;1298;51.252;6.802;2022-07-23T10:32:14;0.50;;;0.43;;
2576;SDS011;1298;51.252;6.802;2022-07-23T10:35:10;0.40;;;0.22;;
2576;SDS011;1298;51.252;6.802;2022-07-23T10:38:07;0.50;;;0.50;;
2576;SDS011;1298;51.252;6.802;2022-07-23T10:40:58;0.40;;;0.25;;
2576;SDS011;1298;51.252;6.802;2022-07-23T10:43:44;0.47;;;0.40;;
2576;SDS011;1298;51.252;6.802;2022-07-23T10:46:53;0.50;;;0.45;;
2576;SDS011;1298;51.252;6.802;2022-07-23T10:49:47;0.50;;;0.40;;
2576;SDS011;1298;51.252;6.802;2022-07-23T10:52:33;0.55;;;0.55;;
2576;SDS011;1298;51.252;6.802;2022-07-23T10:58:45;0.50;;;0.28;;
2576;SDS011;1298;51.252;6.802;2022-07-23T11:01:32;0.57;;;0.57;;
2576;SDS011;1298;51.252;6.802;2022-07-23T11:04:19;0.50;;;0.40;;
2576;SDS011;1298;51.252;6.802;2022-07-23T11:07:36;0.50;;;0.30;;
2576;SDS011;1298;51.252;6.802;2022-07-23T11:10:44;0.50;;;0.30;;
2576;SDS011;1298;51.252;6.802;2022-07-23T11:13:35;1.00;;;1.00;;
2576;SDS011;1298;51.252;6.802;2022-07-23T11:16:41;0.50;;;0.30;;
2576;SDS011;1298;51.252;6.802;2022-07-23T11:19:32;0.50;;;0.40;;
2576;SDS011;1298;51.252;6.802;2022-07-23T11:22:57;0.50;;;0.30;;
2576;SDS011;1298;51.252;6.802;2022-07-23T11:25:44;0.50;;;0.30;;
2576;SDS011;1298;51.252;6.802;2022-07-23T11:28:31;0.50;;;0.40;;
2576;SDS011;1298;51.252;6.802;2022-07-23T11:31:17;0.50;;;0.25;;
2576;SDS011;1298;51.252;6.802;2022-07-23T11:37:26;0.60;;;0.60;;
2576;SDS011;1298;51.252;6.802;2022-07-23T11:40:13;0.60;;;0.43;;
2576;SDS011;1298;51.252;6.802;2022-07-23T11:43:02;0.50;;;0.30;;
2576;SDS011;1298;51.252;6.802;2022-07-23T11:45:49;0.50;;;0.20;;
2576;SDS011;1298;51.252;6.802;2022-07-23T11:48:38;0.50;;;0.30;;
2576;SDS011;1298;51.252;6.802;2022-07-23T11:51:25;0.50;;;0.30;;
2576;SDS011;1298;51.252;6.802;2022-07-23T11:54:11;0.50;;;0.20;;
2576;SDS011;1298;51.252;6.802;2022-07-23T11:56:57;0.50;;;0.20;;
2576;SDS011;1298;51.252;6.802;2022-07-23T11:59:46;0.50;;;0.30;;
2576;SDS011;1298;51.252;6.802;2022-07-23T12:02:34;0.50;;;0.22;;
2576;SDS011;1298;51.252;6.802;2022-07-23T12:05:20;0.80;;;0.80;;
2576;SDS011;1298;51.252;6.802;2022-07-23T12:08:07;0.57;;;0.57;;
2576;SDS011;1298;51.252;6.802;2022-07-23T12:10:54;0.50;;;0.20;;
2576;SDS011;1298;51.252;6.802;2022-07-23T12:13:39;0.50;;;0.20;;
2576;SDS011;1298;51.252;6.802;2022-07-23T12:16:26;0.50;;;0.40;;
2576;SDS011;1298;51.252;6.802;2022-07-23T12:19:11;0.40;;;0.20;;
2576;SDS011;1298;51.252;6.802;2022-07-23T12:21:58;0.50;;;0.38;;
2576;SDS011;1298;51.252;6.802;2022-07-23T12:24:54;0.50;;;0.28;;
2576;SDS011;1298;51.252;6.802;2022-07-23T12:27:40;0.50;;;0.20;;
2576;SDS011;1298;51.252;6.802;2022-07-23T12:30:27;0.50;;;0.30;;
2576;SDS011;1298;51.252;6.802;2022-07-23T12:33:15;0.90;;;0.90;;
2576;SDS011;1298;51.252;6.802;2022-07-23T12:36:07;0.60;;;0.55;;
2576;SDS011;1298;51.252;6.802;2022-07-23T12:38:54;0.50;;;0.20;;
2576;SDS011;1298;51.252;6.802;2022-07-23T12:41:52;0.40;;;0.17;;
2576;SDS011;1298;51.252;6.802;2022-07-23T12:44:40;0.43;;;0.20;;
2576;SDS011;1298;51.252;6.802;2022-07-23T12:47:25;0.50;;;0.40;;
2576;SDS011;1298;51.252;6.802;2022-07-23T12:53:27;0.40;;;0.10;;
2576;SDS011;1298;51.252;6.802;2022-07-23T12:56:14;0.43;;;0.20;;
2576;SDS011;1298;51.252;6.802;2022-07-23T12:59:05;0.40;;;0.10;;
2576;SDS011;1298;51.252;6.802;2022-07-23T13:01:53;0.40;;;0.10;;
2576;SDS011;1298;51.252;6.802;2022-07-23T13:04:41;0.32;;;0.20;;
2576;SDS011;1298;51.252;6.802;2022-07-23T13:07:28;0.45;;;0.30;;
2576;SDS011;1298;51.252;6.802;2022-07-23T13:10:14;0.30;;;0.10;;
2576;SDS011;1298;51.252;6.802;2022-07-23T13:12:59;0.40;;;0.20;;
2576;SDS011;1298;51.252;6.802;2022-07-23T13:15:45;0.40;;;0.10;;
2576;SDS011;1298;51.252;6.802;2022-07-23T13:18:31;0.40;;;0.30;;
2576;SDS011;1298;51.252;6.802;2022-07-23T13:21:17;5.03;;;4.85;;
2576;SDS011;1298;51.252;6.802;2022-07-23T13:24:04;12.65;;;12.25;;
2576;SDS011;1298;51.252;6.802;2022-07-23T13:26:51;15.07;;;14.48;;
2576;SDS011;1298;51.252;6.802;2022-07-23T13:29:36;12.85;;;12.45;;
2576;SDS011;1298;51.252;6.802;2022-07-23T13:32:22;10.07;;;9.77;;
2576;SDS011;1298;51.252;6.802;2022-07-23T13:35:07;11.75;;;11.38;;
2576;SDS011;1298;51.252;6.802;2022-07-23T13:37:53;12.43;;;12.02;;
2576;SDS011;1298;51.252;6.802;2022-07-23T13:40:40;11.30;;;11.00;;
2576;SDS011;1298;51.252;6.802;2022-07-23T13:43:28;10.40;;;10.10;;
2576;SDS011;1298;51.252;6.802;2022-07-23T13:46:14;10.20;;;9.90;;
2576;SDS011;1298;51.252;6.802;2022-07-23T13:48:59;15.00;;;14.30;;
2576;SDS011;1298;51.252;6.802;2022-07-23T13:51:44;13.07;;;12.57;;
2576;SDS011;1298;51.252;6.802;2022-07-23T13:54:30;13.55;;;13.05;;
2576;SDS011;1298;51.252;6.802;2022-07-23T13:57:17;15.80;;;15.10;;
2576;SDS011;1298;51.252;6.802;2022-07-23T14:00:03;18.38;;;17.48;;
2576;SDS011;1298;51.252;6.802;2022-07-23T14:02:51;16.20;;;15.50;;
2576;SDS011;1298;51.252;6.802;2022-07-23T14:05:36;14.60;;;14.00;;
2576;SDS011;1298;51.252;6.802;2022-07-23T14:08:22;14.10;;;13.60;;
2576;SDS011;1298;51.252;6.802;2022-07-23T14:11:07;12.05;;;11.65;;
2576;SDS011;1298;51.252;6.802;2022-07-23T14:13:54;12.02;;;11.65;;
2576;SDS011;1298;51.252;6.802;2022-07-23T14:16:40;14.20;;;13.70;;
2576;SDS011;1298;51.252;6.802;2022-07-23T14:19:25;14.30;;;13.80;;
2576;SDS011;1298;51.252;6.802;2022-07-23T14:22:11;13.60;;;13.10;;
2576;SDS011;1298;51.252;6.802;2022-07-23T14:24:56;13.90;;;13.40;;
2576;SDS011;1298;51.252;6.802;2022-07-23T14:27:42;11.85;;;11.45;;
2576;SDS011;1298;51.252;6.802;2022-07-23T14:30:29;5.60;;;5.50;;
2576;SDS011;1298;51.252;6.802;2022-07-23T14:33:15;3.90;;;3.80;;
2576;SDS011;1298;51.252;6.802;2022-07-23T14:36:00;3.00;;;2.95;;
2576;SDS011;1298;51.252;6.802;2022-07-23T14:38:46;0.50;;;0.50;;
2576;SDS011;1298;51.252;6.802;2022-07-23T14:41:32;0.38;;;0.38;;
2576;SDS011;1298;51.252;6.802;2022-07-23T14:44:17;0.70;;;0.70;;
2576;SDS011;1298;51.252;6.802;2022-07-23T14:47:05;0.30;;;0.20;;
2576;SDS011;1298;51.252;6.802;2022-07-23T14:49:50;0.38;;;0.35;;
2576;SDS011;1298;51.252;6.802;2022-07-23T14:52:36;2.13;;;2.13;;
2576;SDS011;1298;51.252;6.802;2022-07-23T14:55:21;2.10;;;2.10;;
2576;SDS011;1298;51.252;6.802;2022-07-23T14:58:07;5.68;;;5.55;;
2576;SDS011;1298;51.252;6.802;2022-07-23T15:00:52;5.65;;;5.55;;
2576;SDS011;1298;51.252;6.802;2022-07-23T15:03:39;7.88;;;7.68;;
2576;SDS011;1298;51.252;6.802;2022-07-23T15:06:24;10.85;;;10.55;;
2576;SDS011;1298;51.252;6.802;2022-07-23T15:09:10;10.10;;;9.80;;
2576;SDS011;1298;51.252;6.802;2022-07-23T15:11:55;10.77;;;10.48;;
2576;SDS011;1298;51.252;6.802;2022-07-23T15:14:41;13.13;;;12.63;;
2576;SDS011;1298;51.252;6.802;2022-07-23T15:17:26;12.90;;;12.40;;
2576;SDS011;1298;51.252;6.802;2022-07-23T15:20:13;11.48;;;11.10;;
2576;SDS011;1298;51.252;6.802;2022-07-23T15:22:59;12.25;;;11.85;;
2576;SDS011;1298;51.252;6.802;2022-07-23T15:25:45;12.93;;;12.52;;
2576;SDS011;1298;51.252;6.802;2022-07-23T15:28:30;13.43;;;12.93;;
2576;SDS011;1298;51.252;6.802;2022-07-23T15:31:16;13.70;;;13.20;;
2576;SDS011;1298;51.252;6.802;2022-07-23T15:34:01;14.00;;;13.50;;
2576;SDS011;1298;51.252;6.802;2022-07-23T15:36:49;13.90;;;13.40;;
2576;SDS011;1298;51.252;6.802;2022-07-23T15:39:36;12.98;;;12.57;;
2576;SDS011;1298;51.252;6.802;2022-07-23T15:42:22;13.25;;;12.75;;
2576;SDS011;1298;51.252;6.802;2022-07-23T15:45:08;12.95;;;12.55;;
2576;SDS011;1298;51.252;6.802;2022-07-23T15:47:54;13.07;;;12.57;;
2576;SDS011;1298;51.252;6.802;2022-07-23T15:50:40;11.95;;;11.55;;
2576;SDS011;1298;51.252;6.802;2022-07-23T15:53:27;11.70;;;11.30;;
2576;SDS011;1298;51.252;6.802;2022-07-23T15:56:13;12.65;;;12.25;;
2576;SDS011;1298;51.252;6.802;2022-07-23T15:58:58;12.70;;;12.30;;
2576;SDS011;1298;51.252;6.802;2022-07-23T16:01:43;12.15;;;11.75;;
2576;SDS011;1298;51.252;6.802;2022-07-23T16:04:29;12.60;;;12.20;;
2576;SDS011;1298;51.252;6.802;2022-07-23T16:07:15;12.57;;;12.18;;
2576;SDS011;1298;51.252;6.802;2022-07-23T16:10:02;13.77;;;13.27;;
2576;SDS011;1298;51.252;6.802;2022-07-23T16:12:48;13.50;;;13.00;;
2576;SDS011;1298;51.252;6.802;2022-07-23T16:15:34;10.60;;;10.30;;
2576;SDS011;1298;51.252;6.802;2022-07-23T16:18:20;12.40;;;12.00;;
2576;SDS011;1298;51.252;6.802;2022-07-23T16:21:08;12.32;;;11.93;;
2576;SDS011;1298;51.252;6.802;2022-07-23T16:23:54;11.63;;;11.23;;
2576;SDS011;1298;51.252;6.802;2022-07-23T16:26:41;10.98;;;10.68;;
2576;SDS011;1298;51.252;6.802;2022-07-23T16:29:27;9.90;;;9.60;;
2576;SDS011;1298;51.252;6.802;2022-07-23T16:32:12;11.18;;;10.88;;
2576;SDS011;1298;51.252;6.802;2022-07-23T16:34:58;11.70;;;11.30;;
2576;SDS011;1298;51.252;6.802;2022-07-23T16:37:43;11.25;;;10.95;;
2576;SDS011;1298;51.252;6.802;2022-07-23T16:40:29;11.60;;;11.20;;
2576;SDS011;1298;51.252;6.802;2022-07-23T16:43:18;11.35;;;10.95;;
2576;SDS011;1298;51.252;6.802;2022-07-23T16:46:04;11.35;;;11.05;;
2576;SDS011;1298;51.252;6.802;2022-07-23T16:48:50;10.70;;;10.40;;
2576;SDS011;1298;51.252;6.802;2022-07-23T16:51:36;10.32;;;10.02;;
2576;SDS011;1298;51.252;6.802;2022-07-23T16:54:21;10.70;;;10.40;;
2576;SDS011;1298;51.252;6.802;2022-07-23T16:57:07;10.75;;;10.45;;
2576;SDS011;1298;51.252;6.802;2022-07-23T16:59:54;12.52;;;12.13;;
2576;SDS011;1298;51.252;6.802;2022-07-23T17:02:39;11.85;;;11.45;;
2576;SDS011;1298;51.252;6.802;2022-07-23T17:05:25;12.77;;;12.38;;
2576;SDS011;1298;51.252;6.802;2022-07-23T17:08:11;11.73;;;11.32;;
2576;SDS011;1298;51.252;6.802;2022-07-23T17:10:57;12.50;;;12.10;;
2576;SDS011;1298;51.252;6.802;2022-07-23T17:13:42;9.38;;;9.18;;
2576;SDS011;1298;51.252;6.802;2022-07-23T17:16:29;6.90;;;6.80;;
2576;SDS011;1298;51.252;6.802;2022-07-23T17:19:15;8.75;;;8.55;;
2576;SDS011;1298;51.252;6.802;2022-07-23T17:22:01;9.90;;;9.60;;